Milan, MO (63556)

2:33 AM CST en Diciembre 05, 2016 (GMT -0600)
2mi SE of Milan, MO | | Change Station

Alt 910 ft 40.17 °N, 93.09 °W | Updated 1 second ago

Light Freezing Fog
Ligera niebla helada
32.5 ° F
Sensación térmica 32 ° F
N
0.0
Viento Variable Viento desde Sur
Gusts 0.0 mph

Hoy
Alta -- | Baja -- ° F
--% Posibilidad de precipitaciones
Ayer
Alta -- | Baja -- ° F
Precip. -- pul
Presión 30.04 pul
Visibilidad 0.2 Millas
Nubes
Vientos helados 32 ° F
Punto de rocío 31 ° F
Humedad 94%
Precipitaciones 0.00 pul
Espesor de la nieve No disponible.
7:20 AM 4:46 PM
Creciente, 29% visible
METAR KIRK 050755Z AUTO 21005KT 1/4SM FZFG VV002 M02/M02 A3000 RMK AO2 SLP170 I1002 T10171017
Presión 30.04 pul
Visibilidad 0.2 Millas
Nubes
Vientos helados 32 ° F
Punto de rocío 31 ° F
Humedad 94%
Precipitaciones 0.00 pul
Espesor de la nieve No disponible.
7:20 AM 4:46 PM
Creciente, 29% visible
METAR KIRK 050755Z AUTO 21005KT 1/4SM FZFG VV002 M02/M02 A3000 RMK AO2 SLP170 I1002 T10171017

10-Day Weather Forecast

Almanac

Astronomía

Dec. 05, 2016 Salida Puesta
Hora real
Crepúsculo civil
Crepúsculo náutico
Crepúsculo astronómico
Luna
Horas de luz
Horas de luz
Tomorrow will be .
, % of the Moon is Illuminated

Extremos de hoy

Máximos del estado Bajos del estado

Community

WunderPhotos

Upload Photos

1,955,771 ¡fotos cargadas!

WunderBlog® & News

Nearby

Calidad del aire

  Calidad del aire Índice AQ Contaminante
Not available.

Grosos de nieve

Estación Profundido Altura

Actividad de terremotos

Ciudad Distance Mag. Tiempo y dato
Magnitud mínima muestra es 2,5.

Temperaturas de aguas costeras

Lugar Temperatura

Stations

Estaciones meteorológicas cercanas

Ubicación de la estación Temp. Vientos helados Punto de rocío Humedad Viento Precip. Alt Actualizado Tipo
                   

Watches & Warnings

There are currently no watches in effect.